EDT,Max TemperatureF,Mean TemperatureF,Min TemperatureF,Max Dew PointF,MeanDew PointF,Min DewpointF,Max Humidity, Mean Humidity, Min Humidity, Max Sea Level PressureIn, Mean Sea Level PressureIn, Min Sea Level PressureIn, Max VisibilityMiles, Mean VisibilityMiles, Min VisibilityMiles, Max Wind SpeedMPH, Mean Wind SpeedMPH, Max Gust SpeedMPH,PrecipitationIn, CloudCover, Events, WindDirDegrees
2012-10-1,71,58,46,55,49,41,100,72,35,29.97,29.92,29.86,10,9,3,10,2,17,0.00,0,,265
2012-10-2,68,64,59,64,61,55,100,91,73,29.98,29.96,29.93,10,6,0,9,2,,0.31,8,,68
2012-10-3,80,72,64,73,67,63,100,91,74,30.13,30.05,29.97,10,3,0,4,1,,0.02,6,,333
2012-10-4,77,68,60,72,66,59,100,90,73,30.14,30.10,30.05,10,4,0,6,0,,0.02,3,,244
2012-10-5,80,68,55,61,57,54,100,76,39,30.10,30.04,29.94,10,7,1,10,1,,0.00,0,,271
2012-10-6,77,62,46,61,54,45,94,73,52,30.01,29.89,29.81,10,9,0,13,4,24,0.00,1,,251
2012-10-7,51,46,41,46,43,41,100,84,71,30.13,30.08,30.01,10,9,1,4,0,,0.08,4,,285
2012-10-8,51,44,37,46,42,37,100,83,67,30.28,30.23,30.12,10,9,0,5,1,,0.01,1,,330
2012-10-9,57,52,48,54,50,43,94,88,76,30.21,30.14,30.06,10,8,2,6,1,,0.05,7,,39
2012-10-10,68,60,51,57,50,39,100,74,43,30.06,29.94,29.84,10,7,0,13,4,23,0.01,6,,277
2012-10-11,60,51,42,41,35,32,87,56,34,30.24,30.17,30.03,10,10,10,9,4,17,0.00,0,,274
2012-10-12,60,48,37,43,35,28,100,66,36,30.43,30.21,30.10,10,10,5,12,3,24,0.00,1,,322
2012-10-13,55,42,30,41,30,23,100,65,33,30.52,30.43,30.31,10,10,10,8,1,,0.00,0,,169
2012-10-14,73,57,41,55,48,39,94,66,36,30.30,30.13,29.94,10,10,10,17,5,24,0.00,1,,204
2012-10-15,69,64,57,63,59,52,100,85,68,29.93,29.76,29.67,10,8,0,14,6,20,1.02,3,,203
2012-10-16,60,51,41,52,42,37,100,69,42,29.93,29.82,29.73,10,10,10,12,4,21,0.00,1,,303
2012-10-17,62,50,37,45,41,36,100,78,45,30.03,29.97,29.92,10,8,2,6,1,,0.00,0,,204
2012-10-18,69,55,41,59,49,39,100,79,46,30.00,29.96,29.87,10,8,2,12,3,20,0.00,3,,120
2012-10-19,71,66,62,66,64,59,94,89,78,29.82,29.72,29.63,10,9,2,10,7,18,0.26,6,,152
2012-10-20,64,55,44,59,48,41,100,74,45,29.88,29.75,29.66,10,8,0,9,3,17,0.00,1,,280
2012-10-21,66,55,44,45,41,37,93,63,37,30.08,29.99,29.88,10,10,10,10,4,22,0.00,0,,280
2012-10-22,68,55,42,45,42,41,93,61,37,30.16,30.10,30.06,10,10,10,10,3,16,0.00,0,,283
2012-10-23,69,56,44,57,50,43,100,81,60,30.15,30.09,30.05,10,10,7,5,1,,0.00,2,,264
2012-10-24,73,62,51,59,55,50,100,83,57,30.18,30.11,30.07,10,7,2,9,1,,0.00,2,,99
2012-10-25,62,60,57,59,57,55,94,90,82,30.25,30.22,30.18,10,4,1,7,4,,0.00,8,,87
2012-10-26,66,60,55,59,57,54,94,84,68,30.22,30.16,30.10,10,9,5,7,3,,0.00,6,,71
2012-10-27,64,60,57,59,54,52,94,77,68,30.09,29.98,29.89,10,10,10,9,3,,0.00,5,,64
2012-10-28,59,56,53,54,49,45,94,79,67,29.88,29.77,29.62,10,10,5,14,6,21,0.19,5,,39
2012-10-29,60,56,51,59,50,45,94,84,67,29.62,29.09,28.29,10,5,1,23,12,41,1.41,8,,9
2012-10-30,,,,,,,,,,,,,,,,,,,,,,
2012-10-31,50,46,41,41,38,37,93,76,66,29.60,29.57,29.54,10,10,10,13,5,,0.00,7,,242